sensor_id;sensor_type;location;lat;lon;timestamp;pressure;altitude;pressure_sealevel;temperature;humidity
13581;BME280;6861;46.170;7.222;2023-02-11T00:01:12;97994.38;;;2.26;43.78
13581;BME280;6861;46.170;7.222;2023-02-11T00:03:45;97987.09;;;2.38;44.91
13581;BME280;6861;46.170;7.222;2023-02-11T00:06:13;97995.34;;;2.49;43.97
13581;BME280;6861;46.170;7.222;2023-02-11T00:08:41;97996.56;;;2.61;43.17
13581;BME280;6861;46.170;7.222;2023-02-11T00:11:12;97995.28;;;2.66;43.84
13581;BME280;6861;46.170;7.222;2023-02-11T00:13:41;97991.41;;;2.61;43.29
13581;BME280;6861;46.170;7.222;2023-02-11T00:16:11;97993.72;;;2.56;43.29
13581;BME280;6861;46.170;7.222;2023-02-11T00:18:40;97994.69;;;2.55;43.24
13581;BME280;6861;46.170;7.222;2023-02-11T00:21:12;97994.69;;;2.55;43.91
13581;BME280;6861;46.170;7.222;2023-02-11T00:23:40;97994.69;;;2.55;44.26
13581;BME280;6861;46.170;7.222;2023-02-11T00:26:12;97976.28;;;2.50;43.94
13581;BME280;6861;46.170;7.222;2023-02-11T00:28:40;97975.97;;;2.37;44.70
13581;BME280;6861;46.170;7.222;2023-02-11T00:31:09;97987.59;;;2.25;44.21
13581;BME280;6861;46.170;7.222;2023-02-11T00:33:37;97995.34;;;2.09;44.69
13581;BME280;6861;46.170;7.222;2023-02-11T00:36:06;97992.25;;;1.97;45.16
13581;BME280;6861;46.170;7.222;2023-02-11T00:38:36;97984.19;;;1.92;44.90
13581;BME280;6861;46.170;7.222;2023-02-11T00:41:04;97975.63;;;1.91;44.78
13581;BME280;6861;46.170;7.222;2023-02-11T00:43:32;97980.31;;;1.88;45.80
13581;BME280;6861;46.170;7.222;2023-02-11T00:46:02;97978.69;;;1.87;44.86
13581;BME280;6861;46.170;7.222;2023-02-11T00:48:30;97977.88;;;1.86;45.67
13581;BME280;6861;46.170;7.222;2023-02-11T00:50:58;97974.34;;;1.87;45.45
13581;BME280;6861;46.170;7.222;2023-02-11T00:53:26;97967.25;;;1.89;45.38
13581;BME280;6861;46.170;7.222;2023-02-11T00:55:57;97972.75;;;1.94;44.38
13581;BME280;6861;46.170;7.222;2023-02-11T00:58:26;97974.50;;;1.94;44.64
13581;BME280;6861;46.170;7.222;2023-02-11T01:00:55;97970.00;;;1.96;45.01
13581;BME280;6861;46.170;7.222;2023-02-11T01:03:24;97972.09;;;1.92;44.75
13581;BME280;6861;46.170;7.222;2023-02-11T01:05:52;97972.09;;;1.92;44.47
13581;BME280;6861;46.170;7.222;2023-02-11T01:08:20;97967.41;;;1.96;45.37
13581;BME280;6861;46.170;7.222;2023-02-11T01:10:54;97965.00;;;1.94;45.12
13581;BME280;6861;46.170;7.222;2023-02-11T01:13:24;97969.81;;;1.89;44.81
13581;BME280;6861;46.170;7.222;2023-02-11T01:15:52;97962.56;;;1.77;45.23
13581;BME280;6861;46.170;7.222;2023-02-11T01:18:20;97954.84;;;1.69;44.84
13581;BME280;6861;46.170;7.222;2023-02-11T01:20:50;97961.13;;;1.66;45.17
13581;BME280;6861;46.170;7.222;2023-02-11T01:23:18;97967.56;;;1.62;45.36
13581;BME280;6861;46.170;7.222;2023-02-11T01:25:46;97963.19;;;1.54;45.51
13581;BME280;6861;46.170;7.222;2023-02-11T01:28:16;97954.66;;;1.54;45.96
13581;BME280;6861;46.170;7.222;2023-02-11T01:30:45;97950.28;;;1.54;45.85
13581;BME280;6861;46.170;7.222;2023-02-11T01:33:14;97954.97;;;1.59;46.07
13581;BME280;6861;46.170;7.222;2023-02-11T01:35:42;97956.59;;;1.60;45.05
13581;BME280;6861;46.170;7.222;2023-02-11T01:38:14;97954.00;;;1.60;45.60
13581;BME280;6861;46.170;7.222;2023-02-11T01:40:46;97954.00;;;1.60;45.38
13581;BME280;6861;46.170;7.222;2023-02-11T01:43:14;97950.63;;;1.59;45.86
13581;BME280;6861;46.170;7.222;2023-02-11T01:46:00;97949.47;;;1.54;45.60
13581;BME280;6861;46.170;7.222;2023-02-11T01:48:31;97937.72;;;1.51;46.16
13581;BME280;6861;46.170;7.222;2023-02-11T01:51:04;97942.72;;;1.53;45.98
13581;BME280;6861;46.170;7.222;2023-02-11T01:53:34;97941.72;;;1.46;45.86
13581;BME280;6861;46.170;7.222;2023-02-11T01:56:21;97937.84;;;1.42;45.46
13581;BME280;6861;46.170;7.222;2023-02-11T01:59:12;97948.16;;;1.42;46.65
13581;BME280;6861;46.170;7.222;2023-02-11T02:01:46;97934.00;;;1.46;46.02
13581;BME280;6861;46.170;7.222;2023-02-11T02:04:17;97937.03;;;1.41;46.20
13581;BME280;6861;46.170;7.222;2023-02-11T02:06:49;97931.53;;;1.36;46.08
13581;BME280;6861;46.170;7.222;2023-02-11T02:09:22;97934.59;;;1.31;46.66
13581;BME280;6861;46.170;7.222;2023-02-11T02:11:52;97924.91;;;1.25;46.58
13581;BME280;6861;46.170;7.222;2023-02-11T02:14:20;97926.69;;;1.25;45.93
13581;BME280;6861;46.170;7.222;2023-02-11T02:16:51;97920.06;;;1.22;47.12
13581;BME280;6861;46.170;7.222;2023-02-11T02:22:46;97910.03;;;1.11;46.68
13581;BME280;6861;46.170;7.222;2023-02-11T02:25:41;97924.53;;;1.04;46.94
13581;BME280;6861;46.170;7.222;2023-02-11T02:31:43;97909.69;;;0.98;47.15
13581;BME280;6861;46.170;7.222;2023-02-11T02:34:22;97912.91;;;1.00;46.50
13581;BME280;6861;46.170;7.222;2023-02-11T02:36:59;97905.53;;;1.13;46.57
13581;BME280;6861;46.170;7.222;2023-02-11T02:39:32;97904.75;;;1.21;46.31
13581;BME280;6861;46.170;7.222;2023-02-11T02:42:02;97904.91;;;1.19;46.71
13581;BME280;6861;46.170;7.222;2023-02-11T02:44:32;97900.41;;;1.21;46.96
13581;BME280;6861;46.170;7.222;2023-02-11T02:47:00;97906.69;;;1.19;46.40
13581;BME280;6861;46.170;7.222;2023-02-11T02:49:29;97902.16;;;1.13;47.16
13581;BME280;6861;46.170;7.222;2023-02-11T02:52:15;97910.34;;;1.08;46.52
13581;BME280;6861;46.170;7.222;2023-02-11T02:55:15;97914.41;;;1.11;46.86
13581;BME280;6861;46.170;7.222;2023-02-11T02:57:59;97902.66;;;1.16;46.21
13581;BME280;6861;46.170;7.222;2023-02-11T03:00:33;97899.44;;;1.22;46.05
13581;BME280;6861;46.170;7.222;2023-02-11T03:03:14;97903.63;;;1.23;46.62
13581;BME280;6861;46.170;7.222;2023-02-11T03:05:52;97893.81;;;1.27;46.09
13581;BME280;6861;46.170;7.222;2023-02-11T03:08:25;97896.53;;;1.25;46.46
13581;BME280;6861;46.170;7.222;2023-02-11T03:10:56;97901.06;;;1.23;46.84
13581;BME280;6861;46.170;7.222;2023-02-11T03:13:28;97893.31;;;1.23;45.93
13581;BME280;6861;46.170;7.222;2023-02-11T03:16:03;97891.38;;;1.25;45.90
13581;BME280;6861;46.170;7.222;2023-02-11T03:18:36;97877.84;;;1.23;46.44
13581;BME280;6861;46.170;7.222;2023-02-11T03:21:08;97889.13;;;1.22;46.16
13581;BME280;6861;46.170;7.222;2023-02-11T03:23:40;97884.63;;;1.24;46.15
13581;BME280;6861;46.170;7.222;2023-02-11T03:26:15;97888.50;;;1.28;45.71
13581;BME280;6861;46.170;7.222;2023-02-11T03:28:51;97894.63;;;1.36;45.96
13581;BME280;6861;46.170;7.222;2023-02-11T03:31:27;97889.81;;;1.41;46.23
13581;BME280;6861;46.170;7.222;2023-02-11T03:34:00;97887.88;;;1.43;46.00
13581;BME280;6861;46.170;7.222;2023-02-11T03:36:37;97881.09;;;1.42;45.81
13581;BME280;6861;46.170;7.222;2023-02-11T03:39:08;97884.50;;;1.42;46.04
13581;BME280;6861;46.170;7.222;2023-02-11T03:41:38;97872.72;;;1.48;45.51
13581;BME280;6861;46.170;7.222;2023-02-11T03:44:08;97873.06;;;1.53;45.82
13581;BME280;6861;46.170;7.222;2023-02-11T03:46:38;97877.72;;;1.57;44.93
13581;BME280;6861;46.170;7.222;2023-02-11T03:49:10;97872.09;;;1.62;44.94
13581;BME280;6861;46.170;7.222;2023-02-11T03:51:40;97869.19;;;1.65;45.47
13581;BME280;6861;46.170;7.222;2023-02-11T03:54:12;97868.72;;;1.70;45.17
13581;BME280;6861;46.170;7.222;2023-02-11T03:56:45;97868.03;;;1.76;45.61
13581;BME280;6861;46.170;7.222;2023-02-11T03:59:15;97868.84;;;1.76;44.79
13581;BME280;6861;46.170;7.222;2023-02-11T04:01:43;97861.13;;;1.68;45.14
13581;BME280;6861;46.170;7.222;2023-02-11T04:04:12;97860.31;;;1.59;45.61
13581;BME280;6861;46.170;7.222;2023-02-11T04:06:41;97865.31;;;1.53;45.27
13581;BME280;6861;46.170;7.222;2023-02-11T04:09:10;97866.59;;;1.57;45.05
13581;BME280;6861;46.170;7.222;2023-02-11T04:11:38;97874.34;;;1.57;45.85
13581;BME280;6861;46.170;7.222;2023-02-11T04:14:06;97866.94;;;1.62;44.80
13581;BME280;6861;46.170;7.222;2023-02-11T04:16:34;97871.28;;;1.61;45.88
13581;BME280;6861;46.170;7.222;2023-02-11T04:19:02;97871.13;;;1.55;45.71
13581;BME280;6861;46.170;7.222;2023-02-11T04:21:30;97868.22;;;1.50;45.33
13581;BME280;6861;46.170;7.222;2023-02-11T04:23:59;97865.94;;;1.39;45.48
13581;BME280;6861;46.170;7.222;2023-02-11T04:26:27;97869.81;;;1.35;45.90
13581;BME280;6861;46.170;7.222;2023-02-11T04:28:55;97874.00;;;1.36;45.65
13581;BME280;6861;46.170;7.222;2023-02-11T04:31:23;97868.53;;;1.39;45.72
13581;BME280;6861;46.170;7.222;2023-02-11T04:33:51;97872.72;;;1.40;46.08
13581;BME280;6861;46.170;7.222;2023-02-11T04:36:19;97879.47;;;1.24;45.41
13581;BME280;6861;46.170;7.222;2023-02-11T04:38:47;97878.13;;;1.04;45.81
13581;BME280;6861;46.170;7.222;2023-02-11T04:41:17;97863.75;;;0.85;46.40
13581;BME280;6861;46.170;7.222;2023-02-11T04:43:45;97881.00;;;0.85;47.13
13581;BME280;6861;46.170;7.222;2023-02-11T04:46:13;97876.13;;;0.74;47.38
13581;BME280;6861;46.170;7.222;2023-02-11T04:48:41;97878.66;;;0.65;47.23
13581;BME280;6861;46.170;7.222;2023-02-11T04:51:09;97872.97;;;0.54;47.15
13581;BME280;6861;46.170;7.222;2023-02-11T04:53:37;97878.91;;;0.46;47.88
13581;BME280;6861;46.170;7.222;2023-02-11T04:56:05;97884.03;;;0.46;47.98
13581;BME280;6861;46.170;7.222;2023-02-11T04:58:35;97878.53;;;0.41;47.49
13581;BME280;6861;46.170;7.222;2023-02-11T05:01:06;97873.66;;;0.30;48.23
13581;BME280;6861;46.170;7.222;2023-02-11T05:03:35;97870.44;;;0.28;47.96
13581;BME280;6861;46.170;7.222;2023-02-11T05:06:03;97878.81;;;0.30;48.08
13581;BME280;6861;46.170;7.222;2023-02-11T05:08:32;97870.13;;;0.31;48.51
13581;BME280;6861;46.170;7.222;2023-02-11T05:11:00;97859.81;;;0.31;48.52
13581;BME280;6861;46.170;7.222;2023-02-11T05:13:28;97861.75;;;0.29;48.02
13581;BME280;6861;46.170;7.222;2023-02-11T05:15:58;97854.69;;;0.31;48.16
13581;BME280;6861;46.170;7.222;2023-02-11T05:18:26;97850.03;;;0.35;48.07
13581;BME280;6861;46.170;7.222;2023-02-11T05:20:54;97850.63;;;0.28;48.19
13581;BME280;6861;46.170;7.222;2023-02-11T05:23:23;97840.16;;;0.22;48.79
13581;BME280;6861;46.170;7.222;2023-02-11T05:25:51;97843.69;;;0.21;48.60
13581;BME280;6861;46.170;7.222;2023-02-11T05:28:19;97845.44;;;0.20;48.67
13581;BME280;6861;46.170;7.222;2023-02-11T05:30:47;97840.94;;;0.22;48.16
13581;BME280;6861;46.170;7.222;2023-02-11T05:33:17;97843.69;;;0.21;48.34
13581;BME280;6861;46.170;7.222;2023-02-11T05:35:45;97835.31;;;0.19;48.60
13581;BME280;6861;46.170;7.222;2023-02-11T05:38:12;97843.78;;;0.11;48.90
13581;BME280;6861;46.170;7.222;2023-02-11T05:40:40;97841.97;;;0.04;48.72
13581;BME280;6861;46.170;7.222;2023-02-11T05:43:08;97838.75;;;0.02;49.00
13581;BME280;6861;46.170;7.222;2023-02-11T05:45:36;97841.00;;;-0.04;49.03
13581;BME280;6861;46.170;7.222;2023-02-11T05:48:04;97826.81;;;-0.08;49.29
13581;BME280;6861;46.170;7.222;2023-02-11T05:50:34;97833.22;;;-0.12;49.41
13581;BME280;6861;46.170;7.222;2023-02-11T05:53:02;97839.03;;;-0.10;49.14
13581;BME280;6861;46.170;7.222;2023-02-11T05:55:31;97833.22;;;-0.12;49.53
13581;BME280;6861;46.170;7.222;2023-02-11T05:57:59;97827.88;;;-0.18;49.88
13581;BME280;6861;46.170;7.222;2023-02-11T06:00:27;97827.00;;;-0.27;50.17
13581;BME280;6861;46.170;7.222;2023-02-11T06:02:55;97826.34;;;-0.29;50.34
13581;BME280;6861;46.170;7.222;2023-02-11T06:05:23;97821.22;;;-0.29;49.83
13581;BME280;6861;46.170;7.222;2023-02-11T06:07:53;97820.41;;;-0.29;49.88
13581;BME280;6861;46.170;7.222;2023-02-11T06:10:21;97818.28;;;-0.34;49.90
13581;BME280;6861;46.170;7.222;2023-02-11T06:12:49;97815.41;;;-0.31;50.14
13581;BME280;6861;46.170;7.222;2023-02-11T06:15:17;97830.47;;;-0.36;50.28
13581;BME280;6861;46.170;7.222;2023-02-11T06:17:45;97830.19;;;-0.51;50.71
13581;BME280;6861;46.170;7.222;2023-02-11T06:20:13;97819.84;;;-0.59;50.95
13581;BME280;6861;46.170;7.222;2023-02-11T06:22:41;97813.53;;;-0.64;51.01
13581;BME280;6861;46.170;7.222;2023-02-11T06:25:11;97814.88;;;-0.78;51.86
13581;BME280;6861;46.170;7.222;2023-02-11T06:27:39;97818.19;;;-0.86;52.08
13581;BME280;6861;46.170;7.222;2023-02-11T06:30:08;97802.41;;;-0.91;52.01
13581;BME280;6861;46.170;7.222;2023-02-11T06:32:36;97810.94;;;-0.90;51.78
13581;BME280;6861;46.170;7.222;2023-02-11T06:35:10;97808.88;;;-0.87;51.94
13581;BME280;6861;46.170;7.222;2023-02-11T06:37:38;97807.56;;;-0.91;52.14
13581;BME280;6861;46.170;7.222;2023-02-11T06:40:07;97815.94;;;-0.89;52.61
13581;BME280;6861;46.170;7.222;2023-02-11T06:42:36;97808.22;;;-0.89;52.32
13581;BME280;6861;46.170;7.222;2023-02-11T06:45:05;97808.88;;;-0.87;52.18
13581;BME280;6861;46.170;7.222;2023-02-11T06:47:35;97812.09;;;-0.85;52.40
13581;BME280;6861;46.170;7.222;2023-02-11T06:50:03;97812.44;;;-0.80;52.13
13581;BME280;6861;46.170;7.222;2023-02-11T06:52:31;97811.06;;;-0.74;51.86
13581;BME280;6861;46.170;7.222;2023-02-11T06:55:00;97816.78;;;-0.62;51.77
13581;BME280;6861;46.170;7.222;2023-02-11T06:57:29;97819.63;;;-0.48;51.05
13581;BME280;6861;46.170;7.222;2023-02-11T06:59:59;97824.22;;;-0.34;50.89
13581;BME280;6861;46.170;7.222;2023-02-11T07:02:27;97830.91;;;-0.23;50.64
13581;BME280;6861;46.170;7.222;2023-02-11T07:04:55;97831.91;;;-0.16;50.37
13581;BME280;6861;46.170;7.222;2023-02-11T07:07:23;97842.25;;;-0.08;50.07
13581;BME280;6861;46.170;7.222;2023-02-11T07:09:51;97840.19;;;-0.04;50.21
13581;BME280;6861;46.170;7.222;2023-02-11T07:12:19;97833.13;;;-0.02;50.12
13581;BME280;6861;46.170;7.222;2023-02-11T07:14:47;97838.75;;;0.02;50.15
13581;BME280;6861;46.170;7.222;2023-02-11T07:17:16;97840.56;;;0.09;49.75
13581;BME280;6861;46.170;7.222;2023-02-11T07:19:45;97845.09;;;0.15;49.97
13581;BME280;6861;46.170;7.222;2023-02-11T07:22:13;97851.06;;;0.16;49.41
13581;BME280;6861;46.170;7.222;2023-02-11T07:24:41;97853.97;;;0.21;49.67
13581;BME280;6861;46.170;7.222;2023-02-11T07:27:09;97846.78;;;0.32;49.16
13581;BME280;6861;46.170;7.222;2023-02-11T07:29:37;97848.28;;;0.43;49.04
13581;BME280;6861;46.170;7.222;2023-02-11T07:32:05;97849.28;;;0.50;48.83
13581;BME280;6861;46.170;7.222;2023-02-11T07:34:35;97850.09;;;0.51;49.17
13581;BME280;6861;46.170;7.222;2023-02-11T07:37:03;97866.66;;;0.48;49.19
13581;BME280;6861;46.170;7.222;2023-02-11T07:39:31;97868.63;;;0.54;49.54
13581;BME280;6861;46.170;7.222;2023-02-11T07:41:59;97864.13;;;0.56;49.19
13581;BME280;6861;46.170;7.222;2023-02-11T07:44:28;97862.25;;;0.67;48.94
13581;BME280;6861;46.170;7.222;2023-02-11T07:46:56;97865.69;;;0.83;48.92
13581;BME280;6861;46.170;7.222;2023-02-11T07:49:24;97869.75;;;1.02;49.00
13581;BME280;6861;46.170;7.222;2023-02-11T07:51:53;97878.81;;;1.22;48.91
13581;BME280;6861;46.170;7.222;2023-02-11T07:54:21;97883.84;;;1.40;47.45
13581;BME280;6861;46.170;7.222;2023-02-11T07:56:49;97876.94;;;1.57;47.50
13581;BME280;6861;46.170;7.222;2023-02-11T07:59:18;97874.69;;;1.70;47.18
13581;BME280;6861;46.170;7.222;2023-02-11T08:01:48;97882.38;;;1.86;46.91
13581;BME280;6861;46.170;7.222;2023-02-11T08:04:17;97885.44;;;1.98;46.88
13581;BME280;6861;46.170;7.222;2023-02-11T08:06:45;97881.06;;;2.07;46.73
13581;BME280;6861;46.170;7.222;2023-02-11T08:09:15;97891.09;;;2.10;47.43
13581;BME280;6861;46.170;7.222;2023-02-11T08:11:44;97878.50;;;2.07;47.32
13581;BME280;6861;46.170;7.222;2023-02-11T08:14:19;97881.25;;;2.05;46.81
13581;BME280;6861;46.170;7.222;2023-02-11T08:16:47;97877.84;;;2.05;47.96
13581;BME280;6861;46.170;7.222;2023-02-11T08:19:15;97882.06;;;2.06;47.97
13581;BME280;6861;46.170;7.222;2023-02-11T08:21:43;97883.00;;;2.05;47.00
13581;BME280;6861;46.170;7.222;2023-02-11T08:24:12;97884.97;;;2.03;46.98
13581;BME280;6861;46.170;7.222;2023-02-11T08:26:42;97884.00;;;1.95;46.68
13581;BME280;6861;46.170;7.222;2023-02-11T08:29:12;97877.22;;;1.94;46.92
13581;BME280;6861;46.170;7.222;2023-02-11T08:31:42;97879.47;;;1.97;47.27
13581;BME280;6861;46.170;7.222;2023-02-11T08:34:12;97878.03;;;1.95;46.74
13581;BME280;6861;46.170;7.222;2023-02-11T08:36:45;97868.34;;;1.89;47.31
13581;BME280;6861;46.170;7.222;2023-02-11T08:39:15;97872.22;;;1.77;46.55
13581;BME280;6861;46.170;7.222;2023-02-11T08:41:48;97870.81;;;1.66;47.18
13581;BME280;6861;46.170;7.222;2023-02-11T08:44:17;97858.53;;;1.60;47.11
13581;BME280;6861;46.170;7.222;2023-02-11T08:46:46;97858.88;;;1.57;46.99
13581;BME280;6861;46.170;7.222;2023-02-11T08:49:14;97858.53;;;1.52;47.49
13581;BME280;6861;46.170;7.222;2023-02-11T08:51:43;97864.34;;;1.54;47.69
13581;BME280;6861;46.170;7.222;2023-02-11T08:54:11;97860.16;;;1.61;47.41
13581;BME280;6861;46.170;7.222;2023-02-11T08:56:40;97863.69;;;1.76;47.34
13581;BME280;6861;46.170;7.222;2023-02-11T08:59:11;97860.28;;;2.00;46.66
13581;BME280;6861;46.170;7.222;2023-02-11T09:01:40;97853.44;;;2.32;46.19
13581;BME280;6861;46.170;7.222;2023-02-11T09:04:10;97858.94;;;2.68;46.47
13581;BME280;6861;46.170;7.222;2023-02-11T09:06:38;97850.69;;;3.03;46.10
13581;BME280;6861;46.170;7.222;2023-02-11T09:09:10;97851.13;;;3.38;45.52
13581;BME280;6861;46.170;7.222;2023-02-11T09:11:39;97848.19;;;3.41;44.63
13581;BME280;6861;46.170;7.222;2023-02-11T09:14:16;97843.22;;;3.54;45.08
13581;BME280;6861;46.170;7.222;2023-02-11T09:16:45;97843.59;;;3.66;45.09
13581;BME280;6861;46.170;7.222;2023-02-11T09:19:13;97849.09;;;3.85;44.64
13581;BME280;6861;46.170;7.222;2023-02-11T09:21:41;97852.97;;;4.04;44.38
13581;BME280;6861;46.170;7.222;2023-02-11T09:24:10;97847.09;;;4.10;44.49
13581;BME280;6861;46.170;7.222;2023-02-11T09:26:40;97841.03;;;4.18;44.17
13581;BME280;6861;46.170;7.222;2023-02-11T09:29:11;97842.88;;;4.39;43.80
13581;BME280;6861;46.170;7.222;2023-02-11T09:31:39;97837.44;;;4.63;43.67
13581;BME280;6861;46.170;7.222;2023-02-11T09:34:07;97840.88;;;4.85;43.54
13581;BME280;6861;46.170;7.222;2023-02-11T09:36:37;97830.09;;;5.03;43.23
13581;BME280;6861;46.170;7.222;2023-02-11T09:39:08;97837.28;;;5.22;43.11
13581;BME280;6861;46.170;7.222;2023-02-11T09:41:45;97841.78;;;5.35;42.48
13581;BME280;6861;46.170;7.222;2023-02-11T09:44:21;97837.97;;;5.52;42.81
13581;BME280;6861;46.170;7.222;2023-02-11T09:46:54;97842.41;;;5.58;42.60
13581;BME280;6861;46.170;7.222;2023-02-11T09:49:29;97833.19;;;5.55;42.35
13581;BME280;6861;46.170;7.222;2023-02-11T09:52:04;97844.38;;;5.56;42.25
13581;BME280;6861;46.170;7.222;2023-02-11T09:54:38;97846.63;;;5.59;42.46
13581;BME280;6861;46.170;7.222;2023-02-11T09:57:11;97861.22;;;5.60;41.71
13581;BME280;6861;46.170;7.222;2023-02-11T09:59:56;97861.50;;;5.50;42.12
13581;BME280;6861;46.170;7.222;2023-02-11T10:02:29;97851.19;;;5.36;41.89
13581;BME280;6861;46.170;7.222;2023-02-11T10:05:13;97849.94;;;5.10;41.75
13581;BME280;6861;46.170;7.222;2023-02-11T10:07:47;97853.03;;;4.99;41.62
13581;BME280;6861;46.170;7.222;2023-02-11T10:10:34;97848.91;;;4.90;41.90
13581;BME280;6861;46.170;7.222;2023-02-11T10:13:29;97855.56;;;4.78;41.89
13581;BME280;6861;46.170;7.222;2023-02-11T10:16:07;97857.97;;;4.65;41.59
13581;BME280;6861;46.170;7.222;2023-02-11T10:18:45;97854.16;;;4.60;42.05
13581;BME280;6861;46.170;7.222;2023-02-11T10:21:26;97856.13;;;4.58;42.15
13581;BME280;6861;46.170;7.222;2023-02-11T10:24:00;97859.69;;;4.57;41.82
13581;BME280;6861;46.170;7.222;2023-02-11T10:26:31;97848.88;;;4.54;42.04
13581;BME280;6861;46.170;7.222;2023-02-11T10:29:05;97855.94;;;4.45;42.09
13581;BME280;6861;46.170;7.222;2023-02-11T10:31:41;97856.13;;;4.29;42.25
13581;BME280;6861;46.170;7.222;2023-02-11T10:34:12;97855.94;;;4.16;42.17
13581;BME280;6861;46.170;7.222;2023-02-11T10:36:42;97850.22;;;4.06;42.62
13581;BME280;6861;46.170;7.222;2023-02-11T10:39:12;97858.59;;;3.93;42.72
13581;BME280;6861;46.170;7.222;2023-02-11T10:41:43;97856.34;;;3.90;42.66
13581;BME280;6861;46.170;7.222;2023-02-11T10:44:20;97869.31;;;4.05;43.01
13581;BME280;6861;46.170;7.222;2023-02-11T10:46:52;97863.19;;;4.50;43.23
13581;BME280;6861;46.170;7.222;2023-02-11T10:49:39;97860.44;;;5.23;42.49
13581;BME280;6861;46.170;7.222;2023-02-11T10:52:18;97861.16;;;5.96;41.93
13581;BME280;6861;46.170;7.222;2023-02-11T10:55:01;97851.97;;;6.69;41.09
13581;BME280;6861;46.170;7.222;2023-02-11T10:57:33;97851.78;;;7.32;40.86
13581;BME280;6861;46.170;7.222;2023-02-11T11:00:07;97847.00;;;7.88;40.88
13581;BME280;6861;46.170;7.222;2023-02-11T11:02:54;97834.94;;;8.40;39.84
13581;BME280;6861;46.170;7.222;2023-02-11T11:05:28;97836.00;;;8.77;38.95
13581;BME280;6861;46.170;7.222;2023-02-11T11:07:59;97833.44;;;9.08;39.15
13581;BME280;6861;46.170;7.222;2023-02-11T11:10:34;97827.31;;;9.28;38.08
13581;BME280;6861;46.170;7.222;2023-02-11T11:13:03;97829.22;;;9.45;37.82
13581;BME280;6861;46.170;7.222;2023-02-11T11:15:31;97821.91;;;9.54;37.34
13581;BME280;6861;46.170;7.222;2023-02-11T11:18:13;97815.78;;;9.67;36.82
13581;BME280;6861;46.170;7.222;2023-02-11T11:20:55;97816.31;;;9.75;36.63
13581;BME280;6861;46.170;7.222;2023-02-11T11:23:27;97811.88;;;9.76;36.25
13581;BME280;6861;46.170;7.222;2023-02-11T11:26:02;97810.50;;;9.73;35.37
13581;BME280;6861;46.170;7.222;2023-02-11T11:28:35;97806.72;;;9.69;35.38
13581;BME280;6861;46.170;7.222;2023-02-11T11:31:11;97807.13;;;9.66;35.14
13581;BME280;6861;46.170;7.222;2023-02-11T11:33:42;97800.72;;;9.62;35.20
13581;BME280;6861;46.170;7.222;2023-02-11T11:36:13;97793.75;;;9.56;35.08
13581;BME280;6861;46.170;7.222;2023-02-11T11:38:44;97788.81;;;9.48;34.85
13581;BME280;6861;46.170;7.222;2023-02-11T11:41:23;97788.47;;;9.38;34.89
13581;BME280;6861;46.170;7.222;2023-02-11T11:43:56;97783.50;;;9.30;34.84
13581;BME280;6861;46.170;7.222;2023-02-11T11:46:27;97777.31;;;9.24;34.35
13581;BME280;6861;46.170;7.222;2023-02-11T11:49:03;97763.50;;;9.17;34.30
13581;BME280;6861;46.170;7.222;2023-02-11T11:51:35;97757.94;;;9.07;34.26
13581;BME280;6861;46.170;7.222;2023-02-11T11:54:10;97752.78;;;8.94;33.90
13581;BME280;6861;46.170;7.222;2023-02-11T11:56:53;97752.66;;;8.82;34.31
13581;BME280;6861;46.170;7.222;2023-02-11T11:59:25;97743.47;;;8.73;34.23
13581;BME280;6861;46.170;7.222;2023-02-11T12:02:05;97730.50;;;8.60;34.51
13581;BME280;6861;46.170;7.222;2023-02-11T12:04:51;97742.22;;;8.44;34.39
13581;BME280;6861;46.170;7.222;2023-02-11T12:07:35;97744.03;;;8.30;34.49
13581;BME280;6861;46.170;7.222;2023-02-11T12:10:30;97723.81;;;8.19;34.71
13581;BME280;6861;46.170;7.222;2023-02-11T12:13:08;97729.03;;;8.19;34.27
13581;BME280;6861;46.170;7.222;2023-02-11T12:15:49;97727.81;;;8.21;34.62
13581;BME280;6861;46.170;7.222;2023-02-11T12:18:32;97719.78;;;8.23;33.78
13581;BME280;6861;46.170;7.222;2023-02-11T12:21:19;97714.16;;;8.26;33.61
13581;BME280;6861;46.170;7.222;2023-02-11T12:24:05;97704.91;;;8.30;33.97
13581;BME280;6861;46.170;7.222;2023-02-11T12:26:43;97706.50;;;8.31;34.10
13581;BME280;6861;46.170;7.222;2023-02-11T12:29:20;97704.53;;;8.33;33.77
13581;BME280;6861;46.170;7.222;2023-02-11T12:32:01;97702.09;;;8.38;33.96
13581;BME280;6861;46.170;7.222;2023-02-11T12:34:54;97701.69;;;8.41;32.92
13581;BME280;6861;46.170;7.222;2023-02-11T12:37:40;97693.25;;;8.46;33.84
13581;BME280;6861;46.170;7.222;2023-02-11T12:40:17;97698.44;;;8.52;32.89
13581;BME280;6861;46.170;7.222;2023-02-11T12:42:53;97685.75;;;8.56;32.82
13581;BME280;6861;46.170;7.222;2023-02-11T12:45:48;97671.88;;;8.62;33.03
13581;BME280;6861;46.170;7.222;2023-02-11T12:48:53;97668.41;;;8.68;32.40
13581;BME280;6861;46.170;7.222;2023-02-11T12:51:35;97666.34;;;8.77;32.96
13581;BME280;6861;46.170;7.222;2023-02-11T12:54:16;97668.50;;;8.86;32.65
13581;BME280;6861;46.170;7.222;2023-02-11T12:56:51;97659.19;;;8.97;32.72
13581;BME280;6861;46.170;7.222;2023-02-11T12:59:35;97659.94;;;9.04;32.19
13581;BME280;6861;46.170;7.222;2023-02-11T13:02:14;97653.06;;;9.10;32.34
13581;BME280;6861;46.170;7.222;2023-02-11T13:04:47;97646.19;;;9.15;32.16
13581;BME280;6861;46.170;7.222;2023-02-11T13:07:21;97649.53;;;9.23;32.34
13581;BME280;6861;46.170;7.222;2023-02-11T13:09:57;97651.28;;;9.29;31.96
13581;BME280;6861;46.170;7.222;2023-02-11T13:12:28;97645.63;;;9.32;31.55
13581;BME280;6861;46.170;7.222;2023-02-11T13:15:16;97639.81;;;9.30;31.33
13581;BME280;6861;46.170;7.222;2023-02-11T13:17:51;97633.38;;;9.32;31.34
13581;BME280;6861;46.170;7.222;2023-02-11T13:20:29;97628.31;;;9.37;31.05
13581;BME280;6861;46.170;7.222;2023-02-11T13:23:06;97622.44;;;9.42;31.34
13581;BME280;6861;46.170;7.222;2023-02-11T13:25:44;97621.56;;;9.48;31.05
13581;BME280;6861;46.170;7.222;2023-02-11T13:28:24;97621.72;;;9.53;31.19
13581;BME280;6861;46.170;7.222;2023-02-11T13:30:55;97624.81;;;9.62;30.92
13581;BME280;6861;46.170;7.222;2023-02-11T13:33:33;97621.53;;;9.66;30.62
13581;BME280;6861;46.170;7.222;2023-02-11T13:36:22;97618.72;;;9.68;30.73
13581;BME280;6861;46.170;7.222;2023-02-11T13:38:55;97616.91;;;9.68;30.90
13581;BME280;6861;46.170;7.222;2023-02-11T13:41:29;97603.41;;;9.71;30.52
13581;BME280;6861;46.170;7.222;2023-02-11T13:43:59;97602.97;;;9.74;30.66
13581;BME280;6861;46.170;7.222;2023-02-11T13:46:46;97606.16;;;9.76;30.54
13581;BME280;6861;46.170;7.222;2023-02-11T13:49:21;97600.28;;;9.81;30.54
13581;BME280;6861;46.170;7.222;2023-02-11T13:51:51;97592.78;;;9.84;30.46
13581;BME280;6861;46.170;7.222;2023-02-11T13:54:24;97603.97;;;9.92;30.83